sensor_id;sensor_type;location;lat;lon;timestamp;P1;durP1;ratioP1;P2;durP2;ratioP2
22320;SDS011;11328;53.928;18.522;2024-03-06T00:01:08;100.72;;;48.42;;
22320;SDS011;11328;53.928;18.522;2024-03-06T00:03:36;95.03;;;46.90;;
22320;SDS011;11328;53.928;18.522;2024-03-06T00:06:03;105.00;;;48.28;;
22320;SDS011;11328;53.928;18.522;2024-03-06T00:08:31;90.22;;;45.80;;
22320;SDS011;11328;53.928;18.522;2024-03-06T00:10:58;94.38;;;47.47;;
22320;SDS011;11328;53.928;18.522;2024-03-06T00:13:25;101.38;;;48.92;;
22320;SDS011;11328;53.928;18.522;2024-03-06T00:15:52;93.00;;;46.97;;
22320;SDS011;11328;53.928;18.522;2024-03-06T00:18:20;91.40;;;44.78;;
22320;SDS011;11328;53.928;18.522;2024-03-06T00:20:47;87.80;;;43.80;;
22320;SDS011;11328;53.928;18.522;2024-03-06T00:23:14;86.10;;;44.92;;
22320;SDS011;11328;53.928;18.522;2024-03-06T00:25:41;86.93;;;43.70;;
22320;SDS011;11328;53.928;18.522;2024-03-06T00:28:09;90.97;;;44.72;;
22320;SDS011;11328;53.928;18.522;2024-03-06T00:30:36;88.68;;;44.92;;
22320;SDS011;11328;53.928;18.522;2024-03-06T00:33:03;84.70;;;43.65;;
22320;SDS011;11328;53.928;18.522;2024-03-06T00:35:31;91.72;;;46.38;;
22320;SDS011;11328;53.928;18.522;2024-03-06T00:37:58;83.53;;;45.60;;
22320;SDS011;11328;53.928;18.522;2024-03-06T00:40:29;81.68;;;44.72;;
22320;SDS011;11328;53.928;18.522;2024-03-06T00:42:59;96.35;;;46.67;;
22320;SDS011;11328;53.928;18.522;2024-03-06T00:45:26;86.95;;;44.17;;
22320;SDS011;11328;53.928;18.522;2024-03-06T00:47:54;89.85;;;44.10;;
22320;SDS011;11328;53.928;18.522;2024-03-06T00:50:21;77.95;;;41.42;;
22320;SDS011;11328;53.928;18.522;2024-03-06T00:52:48;88.20;;;44.13;;
22320;SDS011;11328;53.928;18.522;2024-03-06T00:55:16;73.78;;;42.05;;
22320;SDS011;11328;53.928;18.522;2024-03-06T00:57:43;76.65;;;42.17;;
22320;SDS011;11328;53.928;18.522;2024-03-06T01:00:10;75.15;;;40.58;;
22320;SDS011;11328;53.928;18.522;2024-03-06T01:02:39;69.47;;;40.03;;
22320;SDS011;11328;53.928;18.522;2024-03-06T01:05:06;65.25;;;39.72;;
22320;SDS011;11328;53.928;18.522;2024-03-06T01:07:39;75.57;;;40.67;;
22320;SDS011;11328;53.928;18.522;2024-03-06T01:10:06;74.80;;;39.90;;
22320;SDS011;11328;53.928;18.522;2024-03-06T01:12:35;80.40;;;42.47;;
22320;SDS011;11328;53.928;18.522;2024-03-06T01:15:02;73.88;;;40.90;;
22320;SDS011;11328;53.928;18.522;2024-03-06T01:17:30;69.55;;;37.85;;
22320;SDS011;11328;53.928;18.522;2024-03-06T01:19:57;67.93;;;37.65;;
22320;SDS011;11328;53.928;18.522;2024-03-06T01:22:26;64.03;;;37.60;;
22320;SDS011;11328;53.928;18.522;2024-03-06T01:24:54;61.40;;;36.40;;
22320;SDS011;11328;53.928;18.522;2024-03-06T01:27:21;69.05;;;38.50;;
22320;SDS011;11328;53.928;18.522;2024-03-06T01:29:48;68.43;;;40.13;;
22320;SDS011;11328;53.928;18.522;2024-03-06T01:32:15;68.88;;;38.35;;
22320;SDS011;11328;53.928;18.522;2024-03-06T01:34:42;65.38;;;37.30;;
22320;SDS011;11328;53.928;18.522;2024-03-06T01:37:10;71.47;;;37.88;;
22320;SDS011;11328;53.928;18.522;2024-03-06T01:39:37;65.53;;;35.40;;
22320;SDS011;11328;53.928;18.522;2024-03-06T01:42:04;64.55;;;37.13;;
22320;SDS011;11328;53.928;18.522;2024-03-06T01:44:31;66.60;;;36.83;;
22320;SDS011;11328;53.928;18.522;2024-03-06T01:46:58;66.28;;;36.60;;
22320;SDS011;11328;53.928;18.522;2024-03-06T01:49:25;68.90;;;36.88;;
22320;SDS011;11328;53.928;18.522;2024-03-06T01:52:07;62.88;;;35.50;;
22320;SDS011;11328;53.928;18.522;2024-03-06T01:54:39;58.67;;;34.60;;
22320;SDS011;11328;53.928;18.522;2024-03-06T01:57:08;58.53;;;35.13;;
22320;SDS011;11328;53.928;18.522;2024-03-06T01:59:40;56.35;;;33.63;;
22320;SDS011;11328;53.928;18.522;2024-03-06T02:02:08;64.32;;;33.55;;
22320;SDS011;11328;53.928;18.522;2024-03-06T02:04:38;58.25;;;33.88;;
22320;SDS011;11328;53.928;18.522;2024-03-06T02:07:09;54.13;;;31.73;;
22320;SDS011;11328;53.928;18.522;2024-03-06T02:09:39;58.25;;;31.80;;
22320;SDS011;11328;53.928;18.522;2024-03-06T02:12:07;58.38;;;32.00;;
22320;SDS011;11328;53.928;18.522;2024-03-06T02:14:37;57.22;;;30.58;;
22320;SDS011;11328;53.928;18.522;2024-03-06T02:17:04;56.38;;;33.15;;
22320;SDS011;11328;53.928;18.522;2024-03-06T02:19:41;56.10;;;31.17;;
22320;SDS011;11328;53.928;18.522;2024-03-06T02:22:10;51.33;;;29.50;;
22320;SDS011;11328;53.928;18.522;2024-03-06T02:24:42;52.97;;;30.05;;
22320;SDS011;11328;53.928;18.522;2024-03-06T02:27:12;54.95;;;30.58;;
22320;SDS011;11328;53.928;18.522;2024-03-06T02:29:39;50.63;;;31.35;;
22320;SDS011;11328;53.928;18.522;2024-03-06T02:32:06;48.45;;;31.13;;
22320;SDS011;11328;53.928;18.522;2024-03-06T02:34:35;54.75;;;31.33;;
22320;SDS011;11328;53.928;18.522;2024-03-06T02:37:02;57.80;;;32.45;;
22320;SDS011;11328;53.928;18.522;2024-03-06T02:39:30;51.47;;;30.40;;
22320;SDS011;11328;53.928;18.522;2024-03-06T02:41:58;51.45;;;29.92;;
22320;SDS011;11328;53.928;18.522;2024-03-06T02:44:26;53.33;;;31.40;;
22320;SDS011;11328;53.928;18.522;2024-03-06T02:46:54;50.05;;;31.10;;
22320;SDS011;11328;53.928;18.522;2024-03-06T02:49:21;48.35;;;29.63;;
22320;SDS011;11328;53.928;18.522;2024-03-06T02:51:48;52.75;;;29.45;;
22320;SDS011;11328;53.928;18.522;2024-03-06T02:54:16;46.22;;;29.73;;
22320;SDS011;11328;53.928;18.522;2024-03-06T02:56:43;45.47;;;28.67;;
22320;SDS011;11328;53.928;18.522;2024-03-06T02:59:12;46.25;;;28.38;;
22320;SDS011;11328;53.928;18.522;2024-03-06T03:01:40;47.00;;;27.95;;
22320;SDS011;11328;53.928;18.522;2024-03-06T03:04:07;43.78;;;28.13;;
22320;SDS011;11328;53.928;18.522;2024-03-06T03:06:37;50.53;;;29.73;;
22320;SDS011;11328;53.928;18.522;2024-03-06T03:09:04;47.47;;;29.38;;
22320;SDS011;11328;53.928;18.522;2024-03-06T03:11:31;44.40;;;27.67;;
22320;SDS011;11328;53.928;18.522;2024-03-06T03:13:58;44.03;;;27.17;;
22320;SDS011;11328;53.928;18.522;2024-03-06T03:16:26;49.83;;;28.48;;
22320;SDS011;11328;53.928;18.522;2024-03-06T03:18:53;45.15;;;27.83;;
22320;SDS011;11328;53.928;18.522;2024-03-06T03:21:21;46.97;;;26.17;;
22320;SDS011;11328;53.928;18.522;2024-03-06T03:23:48;43.78;;;25.63;;
22320;SDS011;11328;53.928;18.522;2024-03-06T03:26:16;53.78;;;29.42;;
22320;SDS011;11328;53.928;18.522;2024-03-06T03:28:43;49.75;;;27.88;;
22320;SDS011;11328;53.928;18.522;2024-03-06T03:31:11;45.05;;;26.85;;
22320;SDS011;11328;53.928;18.522;2024-03-06T03:33:39;44.83;;;25.63;;
22320;SDS011;11328;53.928;18.522;2024-03-06T03:36:07;42.33;;;24.70;;
22320;SDS011;11328;53.928;18.522;2024-03-06T03:38:36;43.40;;;25.27;;
22320;SDS011;11328;53.928;18.522;2024-03-06T03:41:11;45.58;;;25.25;;
22320;SDS011;11328;53.928;18.522;2024-03-06T03:43:40;43.67;;;25.40;;
22320;SDS011;11328;53.928;18.522;2024-03-06T03:46:08;49.05;;;25.02;;
22320;SDS011;11328;53.928;18.522;2024-03-06T03:48:36;39.80;;;24.52;;
22320;SDS011;11328;53.928;18.522;2024-03-06T03:51:04;44.40;;;25.52;;
22320;SDS011;11328;53.928;18.522;2024-03-06T03:53:34;44.03;;;25.40;;
22320;SDS011;11328;53.928;18.522;2024-03-06T03:56:01;42.53;;;24.85;;
22320;SDS011;11328;53.928;18.522;2024-03-06T03:58:30;40.00;;;25.05;;
22320;SDS011;11328;53.928;18.522;2024-03-06T04:00:57;41.60;;;23.75;;
22320;SDS011;11328;53.928;18.522;2024-03-06T04:03:25;39.70;;;24.08;;
22320;SDS011;11328;53.928;18.522;2024-03-06T04:05:52;40.25;;;23.67;;
22320;SDS011;11328;53.928;18.522;2024-03-06T04:08:20;45.47;;;24.90;;
22320;SDS011;11328;53.928;18.522;2024-03-06T04:10:47;41.42;;;23.90;;
22320;SDS011;11328;53.928;18.522;2024-03-06T04:13:15;38.85;;;24.08;;
22320;SDS011;11328;53.928;18.522;2024-03-06T04:15:43;41.13;;;23.80;;
22320;SDS011;11328;53.928;18.522;2024-03-06T04:18:10;40.05;;;22.98;;
22320;SDS011;11328;53.928;18.522;2024-03-06T04:20:37;38.55;;;23.42;;
22320;SDS011;11328;53.928;18.522;2024-03-06T04:23:05;42.13;;;23.20;;
22320;SDS011;11328;53.928;18.522;2024-03-06T04:25:32;34.83;;;22.38;;
22320;SDS011;11328;53.928;18.522;2024-03-06T04:27:59;41.53;;;25.40;;
22320;SDS011;11328;53.928;18.522;2024-03-06T04:30:28;43.65;;;23.73;;
22320;SDS011;11328;53.928;18.522;2024-03-06T04:32:56;39.47;;;21.80;;
22320;SDS011;11328;53.928;18.522;2024-03-06T04:35:23;39.63;;;21.45;;
22320;SDS011;11328;53.928;18.522;2024-03-06T04:37:50;36.35;;;22.00;;
22320;SDS011;11328;53.928;18.522;2024-03-06T04:40:17;38.35;;;22.10;;
22320;SDS011;11328;53.928;18.522;2024-03-06T04:42:48;39.33;;;21.27;;
22320;SDS011;11328;53.928;18.522;2024-03-06T04:45:16;37.80;;;21.02;;
22320;SDS011;11328;53.928;18.522;2024-03-06T05:02:20;38.63;;;22.35;;
22320;SDS011;11328;53.928;18.522;2024-03-06T05:04:47;36.33;;;20.73;;
22320;SDS011;11328;53.928;18.522;2024-03-06T05:07:32;34.00;;;20.55;;
22320;SDS011;11328;53.928;18.522;2024-03-06T05:10:16;35.03;;;19.33;;
22320;SDS011;11328;53.928;18.522;2024-03-06T05:13:01;35.40;;;19.35;;
22320;SDS011;11328;53.928;18.522;2024-03-06T05:15:46;34.38;;;19.42;;
22320;SDS011;11328;53.928;18.522;2024-03-06T05:18:30;29.05;;;18.98;;
22320;SDS011;11328;53.928;18.522;2024-03-06T05:21:15;31.20;;;19.05;;
22320;SDS011;11328;53.928;18.522;2024-03-06T05:24:00;32.45;;;19.13;;
22320;SDS011;11328;53.928;18.522;2024-03-06T05:26:44;31.08;;;20.42;;
22320;SDS011;11328;53.928;18.522;2024-03-06T05:29:29;35.13;;;20.45;;
22320;SDS011;11328;53.928;18.522;2024-03-06T05:32:14;36.83;;;21.08;;
22320;SDS011;11328;53.928;18.522;2024-03-06T05:34:58;35.92;;;21.02;;
22320;SDS011;11328;53.928;18.522;2024-03-06T05:37:43;34.17;;;20.00;;
22320;SDS011;11328;53.928;18.522;2024-03-06T05:40:27;32.05;;;18.90;;
22320;SDS011;11328;53.928;18.522;2024-03-06T05:43:12;32.80;;;19.20;;
22320;SDS011;11328;53.928;18.522;2024-03-06T05:45:56;33.53;;;18.40;;
22320;SDS011;11328;53.928;18.522;2024-03-06T05:48:41;30.90;;;18.15;;
22320;SDS011;11328;53.928;18.522;2024-03-06T05:51:26;34.30;;;19.00;;
22320;SDS011;11328;53.928;18.522;2024-03-06T05:54:11;32.80;;;18.15;;
22320;SDS011;11328;53.928;18.522;2024-03-06T05:56:56;30.80;;;17.25;;
22320;SDS011;11328;53.928;18.522;2024-03-06T05:59:40;30.75;;;18.10;;
22320;SDS011;11328;53.928;18.522;2024-03-06T06:02:07;29.90;;;17.88;;
22320;SDS011;11328;53.928;18.522;2024-03-06T06:04:34;31.95;;;17.25;;
22320;SDS011;11328;53.928;18.522;2024-03-06T06:07:17;32.42;;;18.52;;
22320;SDS011;11328;53.928;18.522;2024-03-06T06:09:44;29.08;;;18.13;;
22320;SDS011;11328;53.928;18.522;2024-03-06T06:12:11;30.15;;;18.20;;
22320;SDS011;11328;53.928;18.522;2024-03-06T06:14:38;28.58;;;17.13;;
22320;SDS011;11328;53.928;18.522;2024-03-06T06:17:05;32.55;;;17.45;;
22320;SDS011;11328;53.928;18.522;2024-03-06T06:19:32;30.40;;;18.45;;
22320;SDS011;11328;53.928;18.522;2024-03-06T06:21:59;33.88;;;17.65;;
22320;SDS011;11328;53.928;18.522;2024-03-06T06:24:27;33.40;;;18.83;;
22320;SDS011;11328;53.928;18.522;2024-03-06T06:26:54;28.55;;;17.42;;
22320;SDS011;11328;53.928;18.522;2024-03-06T06:29:21;32.53;;;17.23;;
22320;SDS011;11328;53.928;18.522;2024-03-06T06:31:48;27.65;;;17.98;;
22320;SDS011;11328;53.928;18.522;2024-03-06T06:34:15;33.20;;;18.88;;
22320;SDS011;11328;53.928;18.522;2024-03-06T06:36:45;33.55;;;17.73;;
22320;SDS011;11328;53.928;18.522;2024-03-06T06:39:12;30.50;;;17.30;;
22320;SDS011;11328;53.928;18.522;2024-03-06T06:41:39;29.63;;;17.83;;
22320;SDS011;11328;53.928;18.522;2024-03-06T06:44:07;30.73;;;17.55;;
22320;SDS011;11328;53.928;18.522;2024-03-06T06:46:34;30.60;;;17.40;;
22320;SDS011;11328;53.928;18.522;2024-03-06T06:49:01;31.27;;;17.38;;
22320;SDS011;11328;53.928;18.522;2024-03-06T06:51:28;33.08;;;19.08;;
22320;SDS011;11328;53.928;18.522;2024-03-06T06:53:55;35.53;;;18.85;;
22320;SDS011;11328;53.928;18.522;2024-03-06T06:56:26;32.38;;;18.73;;
22320;SDS011;11328;53.928;18.522;2024-03-06T06:58:53;32.95;;;17.67;;
22320;SDS011;11328;53.928;18.522;2024-03-06T07:01:20;27.10;;;16.45;;
22320;SDS011;11328;53.928;18.522;2024-03-06T07:03:47;32.78;;;17.17;;
22320;SDS011;11328;53.928;18.522;2024-03-06T07:06:14;28.95;;;17.08;;
22320;SDS011;11328;53.928;18.522;2024-03-06T07:08:43;29.67;;;16.58;;
22320;SDS011;11328;53.928;18.522;2024-03-06T07:11:10;30.75;;;18.58;;
22320;SDS011;11328;53.928;18.522;2024-03-06T07:13:38;30.40;;;19.27;;
22320;SDS011;11328;53.928;18.522;2024-03-06T07:16:05;31.95;;;18.63;;
22320;SDS011;11328;53.928;18.522;2024-03-06T07:18:33;30.02;;;16.13;;
22320;SDS011;11328;53.928;18.522;2024-03-06T07:21:00;27.52;;;16.67;;
22320;SDS011;11328;53.928;18.522;2024-03-06T07:23:27;26.58;;;16.63;;
22320;SDS011;11328;53.928;18.522;2024-03-06T07:25:54;35.72;;;19.33;;
22320;SDS011;11328;53.928;18.522;2024-03-06T07:28:22;34.78;;;17.50;;
22320;SDS011;11328;53.928;18.522;2024-03-06T07:30:49;33.67;;;18.60;;
22320;SDS011;11328;53.928;18.522;2024-03-06T07:33:16;42.50;;;21.02;;
22320;SDS011;11328;53.928;18.522;2024-03-06T07:35:43;37.70;;;18.85;;
22320;SDS011;11328;53.928;18.522;2024-03-06T07:38:10;30.58;;;17.05;;
22320;SDS011;11328;53.928;18.522;2024-03-06T07:40:37;55.33;;;30.95;;
22320;SDS011;11328;53.928;18.522;2024-03-06T07:43:04;41.13;;;22.67;;
22320;SDS011;11328;53.928;18.522;2024-03-06T07:45:32;30.17;;;16.63;;
22320;SDS011;11328;53.928;18.522;2024-03-06T07:47:59;28.83;;;16.90;;
22320;SDS011;11328;53.928;18.522;2024-03-06T07:50:28;31.65;;;18.38;;
22320;SDS011;11328;53.928;18.522;2024-03-06T07:52:55;32.42;;;17.88;;
22320;SDS011;11328;53.928;18.522;2024-03-06T07:55:22;32.42;;;18.08;;
22320;SDS011;11328;53.928;18.522;2024-03-06T07:57:49;31.23;;;16.90;;
22320;SDS011;11328;53.928;18.522;2024-03-06T08:00:20;28.65;;;18.48;;
22320;SDS011;11328;53.928;18.522;2024-03-06T08:02:48;25.60;;;16.35;;
22320;SDS011;11328;53.928;18.522;2024-03-06T08:05:16;28.15;;;15.98;;
22320;SDS011;11328;53.928;18.522;2024-03-06T08:07:44;29.63;;;16.73;;
22320;SDS011;11328;53.928;18.522;2024-03-06T08:10:12;28.25;;;16.92;;
22320;SDS011;11328;53.928;18.522;2024-03-06T08:12:41;33.25;;;16.77;;
22320;SDS011;11328;53.928;18.522;2024-03-06T08:15:09;28.17;;;15.90;;
22320;SDS011;11328;53.928;18.522;2024-03-06T08:17:39;31.23;;;14.98;;
22320;SDS011;11328;53.928;18.522;2024-03-06T08:20:09;28.95;;;15.50;;
22320;SDS011;11328;53.928;18.522;2024-03-06T08:22:38;31.10;;;16.58;;
22320;SDS011;11328;53.928;18.522;2024-03-06T08:25:07;27.83;;;15.35;;
22320;SDS011;11328;53.928;18.522;2024-03-06T08:27:37;23.20;;;13.68;;
22320;SDS011;11328;53.928;18.522;2024-03-06T08:30:06;24.90;;;14.45;;
22320;SDS011;11328;53.928;18.522;2024-03-06T08:32:35;21.80;;;13.85;;
22320;SDS011;11328;53.928;18.522;2024-03-06T08:37:33;24.60;;;13.23;;
22320;SDS011;11328;53.928;18.522;2024-03-06T08:40:00;23.05;;;13.98;;
22320;SDS011;11328;53.928;18.522;2024-03-06T08:42:28;21.48;;;13.80;;
22320;SDS011;11328;53.928;18.522;2024-03-06T08:44:55;24.27;;;13.95;;
22320;SDS011;11328;53.928;18.522;2024-03-06T08:47:23;23.00;;;13.77;;
22320;SDS011;11328;53.928;18.522;2024-03-06T08:49:50;21.45;;;13.18;;
22320;SDS011;11328;53.928;18.522;2024-03-06T08:52:17;21.02;;;12.63;;
22320;SDS011;11328;53.928;18.522;2024-03-06T08:54:44;22.48;;;13.00;;
22320;SDS011;11328;53.928;18.522;2024-03-06T08:57:11;26.25;;;13.43;;
22320;SDS011;11328;53.928;18.522;2024-03-06T08:59:38;23.45;;;13.60;;
22320;SDS011;11328;53.928;18.522;2024-03-06T09:02:15;20.92;;;12.70;;
22320;SDS011;11328;53.928;18.522;2024-03-06T09:04:46;22.63;;;13.07;;
22320;SDS011;11328;53.928;18.522;2024-03-06T09:07:13;21.65;;;13.45;;
22320;SDS011;11328;53.928;18.522;2024-03-06T09:09:41;20.38;;;12.40;;
22320;SDS011;11328;53.928;18.522;2024-03-06T09:12:08;20.90;;;12.77;;
22320;SDS011;11328;53.928;18.522;2024-03-06T09:14:37;22.23;;;13.13;;
22320;SDS011;11328;53.928;18.522;2024-03-06T09:17:05;21.10;;;12.68;;
22320;SDS011;11328;53.928;18.522;2024-03-06T09:19:35;23.85;;;12.05;;
22320;SDS011;11328;53.928;18.522;2024-03-06T09:22:04;20.90;;;12.90;;
22320;SDS011;11328;53.928;18.522;2024-03-06T09:24:31;20.52;;;11.68;;
22320;SDS011;11328;53.928;18.522;2024-03-06T09:26:58;20.40;;;12.23;;
22320;SDS011;11328;53.928;18.522;2024-03-06T09:29:25;20.67;;;12.13;;
22320;SDS011;11328;53.928;18.522;2024-03-06T09:31:52;23.70;;;12.30;;
22320;SDS011;11328;53.928;18.522;2024-03-06T09:34:19;23.42;;;13.35;;
22320;SDS011;11328;53.928;18.522;2024-03-06T09:36:48;22.33;;;12.73;;
22320;SDS011;11328;53.928;18.522;2024-03-06T09:39:17;21.98;;;12.73;;
22320;SDS011;11328;53.928;18.522;2024-03-06T09:41:46;24.17;;;13.10;;
22320;SDS011;11328;53.928;18.522;2024-03-06T09:44:14;24.83;;;13.20;;
22320;SDS011;11328;53.928;18.522;2024-03-06T09:46:45;23.25;;;12.18;;
22320;SDS011;11328;53.928;18.522;2024-03-06T09:49:15;23.83;;;12.65;;
22320;SDS011;11328;53.928;18.522;2024-03-06T09:51:47;24.27;;;12.65;;
22320;SDS011;11328;53.928;18.522;2024-03-06T09:54:58;18.35;;;11.82;;
22320;SDS011;11328;53.928;18.522;2024-03-06T09:57:27;22.98;;;13.18;;
22320;SDS011;11328;53.928;18.522;2024-03-06T09:59:54;27.25;;;14.45;;
22320;SDS011;11328;53.928;18.522;2024-03-06T10:05:01;24.52;;;14.35;;
22320;SDS011;11328;53.928;18.522;2024-03-06T10:07:29;18.63;;;10.73;;
22320;SDS011;11328;53.928;18.522;2024-03-06T10:09:56;16.08;;;10.27;;
22320;SDS011;11328;53.928;18.522;2024-03-06T10:12:23;20.33;;;11.90;;
22320;SDS011;11328;53.928;18.522;2024-03-06T10:14:51;22.23;;;11.65;;
22320;SDS011;11328;53.928;18.522;2024-03-06T10:17:19;19.63;;;11.23;;
22320;SDS011;11328;53.928;18.522;2024-03-06T10:19:49;21.58;;;11.13;;
22320;SDS011;11328;53.928;18.522;2024-03-06T10:22:18;22.20;;;10.32;;
22320;SDS011;11328;53.928;18.522;2024-03-06T10:24:47;16.83;;;10.52;;
22320;SDS011;11328;53.928;18.522;2024-03-06T10:27:17;19.83;;;11.50;;
22320;SDS011;11328;53.928;18.522;2024-03-06T10:29:44;19.67;;;10.93;;
22320;SDS011;11328;53.928;18.522;2024-03-06T10:32:15;17.85;;;10.18;;
22320;SDS011;11328;53.928;18.522;2024-03-06T10:34:46;20.27;;;11.50;;
22320;SDS011;11328;53.928;18.522;2024-03-06T10:37:13;20.13;;;10.88;;
22320;SDS011;11328;53.928;18.522;2024-03-06T10:39:42;19.05;;;10.20;;
22320;SDS011;11328;53.928;18.522;2024-03-06T10:42:12;17.52;;;10.82;;
22320;SDS011;11328;53.928;18.522;2024-03-06T10:44:44;19.08;;;11.98;;
22320;SDS011;11328;53.928;18.522;2024-03-06T10:47:19;29.25;;;15.73;;
22320;SDS011;11328;53.928;18.522;2024-03-06T10:49:47;24.10;;;12.95;;
22320;SDS011;11328;53.928;18.522;2024-03-06T10:52:16;25.95;;;13.82;;
22320;SDS011;11328;53.928;18.522;2024-03-06T10:54:45;22.05;;;11.45;;
22320;SDS011;11328;53.928;18.522;2024-03-06T10:57:14;21.35;;;10.95;;
22320;SDS011;11328;53.928;18.522;2024-03-06T10:59:42;21.05;;;10.88;;
22320;SDS011;11328;53.928;18.522;2024-03-06T11:02:10;16.98;;;9.45;;
22320;SDS011;11328;53.928;18.522;2024-03-06T11:04:39;16.83;;;9.45;;
22320;SDS011;11328;53.928;18.522;2024-03-06T11:07:07;17.38;;;10.05;;
22320;SDS011;11328;53.928;18.522;2024-03-06T11:09:40;24.30;;;13.10;;
22320;SDS011;11328;53.928;18.522;2024-03-06T11:12:08;15.90;;;9.95;;
22320;SDS011;11328;53.928;18.522;2024-03-06T11:14:38;18.17;;;9.57;;
22320;SDS011;11328;53.928;18.522;2024-03-06T11:17:09;21.73;;;10.73;;
22320;SDS011;11328;53.928;18.522;2024-03-06T11:30:48;19.60;;;10.32;;
22320;SDS011;11328;53.928;18.522;2024-03-06T11:33:44;18.15;;;10.32;;
22320;SDS011;11328;53.928;18.522;2024-03-06T11:36:23;17.95;;;10.15;;
22320;SDS011;11328;53.928;18.522;2024-03-06T11:39:05;16.55;;;9.63;;
22320;SDS011;11328;53.928;18.522;2024-03-06T11:44:02;28.25;;;12.43;;
22320;SDS011;11328;53.928;18.522;2024-03-06T11:46:42;21.90;;;10.00;;
22320;SDS011;11328;53.928;18.522;2024-03-06T11:49:30;17.42;;;9.70;;
22320;SDS011;11328;53.928;18.522;2024-03-06T11:54:32;15.40;;;8.65;;
22320;SDS011;11328;53.928;18.522;2024-03-06T11:57:00;17.92;;;10.05;;
22320;SDS011;11328;53.928;18.522;2024-03-06T11:59:30;19.17;;;9.68;;
22320;SDS011;11328;53.928;18.522;2024-03-06T12:02:00;16.55;;;9.52;;
22320;SDS011;11328;53.928;18.522;2024-03-06T12:04:31;20.10;;;10.55;;
22320;SDS011;11328;53.928;18.522;2024-03-06T12:07:00;19.50;;;9.65;;
22320;SDS011;11328;53.928;18.522;2024-03-06T12:09:35;19.98;;;9.40;;
22320;SDS011;11328;53.928;18.522;2024-03-06T12:12:09;15.68;;;8.63;;
22320;SDS011;11328;53.928;18.522;2024-03-06T12:14:38;16.05;;;8.63;;
22320;SDS011;11328;53.928;18.522;2024-03-06T12:17:11;20.70;;;9.70;;
22320;SDS011;11328;53.928;18.522;2024-03-06T12:19:45;16.33;;;9.38;;
22320;SDS011;11328;53.928;18.522;2024-03-06T12:22:12;17.52;;;9.27;;
22320;SDS011;11328;53.928;18.522;2024-03-06T12:24:41;17.23;;;8.73;;
22320;SDS011;11328;53.928;18.522;2024-03-06T12:27:09;20.60;;;10.20;;
22320;SDS011;11328;53.928;18.522;2024-03-06T12:29:40;14.02;;;8.52;;
22320;SDS011;11328;53.928;18.522;2024-03-06T12:32:17;14.45;;;8.35;;
22320;SDS011;11328;53.928;18.522;2024-03-06T12:34:56;16.95;;;8.90;;
22320;SDS011;11328;53.928;18.522;2024-03-06T12:37:33;14.80;;;8.57;;
22320;SDS011;11328;53.928;18.522;2024-03-06T12:40:02;18.92;;;10.10;;
22320;SDS011;11328;53.928;18.522;2024-03-06T12:42:31;15.48;;;8.25;;
22320;SDS011;11328;53.928;18.522;2024-03-06T12:45:00;13.40;;;8.38;;
22320;SDS011;11328;53.928;18.522;2024-03-06T12:47:27;17.70;;;9.32;;
22320;SDS011;11328;53.928;18.522;2024-03-06T12:49:54;14.52;;;8.65;;
22320;SDS011;11328;53.928;18.522;2024-03-06T12:52:22;15.55;;;8.05;;
22320;SDS011;11328;53.928;18.522;2024-03-06T12:54:49;14.65;;;8.00;;
22320;SDS011;11328;53.928;18.522;2024-03-06T12:57:16;15.63;;;8.20;;
22320;SDS011;11328;53.928;18.522;2024-03-06T12:59:44;14.38;;;7.47;;
22320;SDS011;11328;53.928;18.522;2024-03-06T13:02:11;13.43;;;8.20;;
22320;SDS011;11328;53.928;18.522;2024-03-06T13:04:41;11.85;;;7.38;;
22320;SDS011;11328;53.928;18.522;2024-03-06T13:07:08;15.38;;;7.25;;
22320;SDS011;11328;53.928;18.522;2024-03-06T13:09:35;14.52;;;8.38;;
22320;SDS011;11328;53.928;18.522;2024-03-06T13:12:02;13.13;;;7.78;;
22320;SDS011;11328;53.928;18.522;2024-03-06T13:14:30;13.13;;;7.20;;
22320;SDS011;11328;53.928;18.522;2024-03-06T13:16:59;12.10;;;7.25;;
22320;SDS011;11328;53.928;18.522;2024-03-06T13:19:27;14.77;;;7.68;;
22320;SDS011;11328;53.928;18.522;2024-03-06T13:21:55;15.35;;;8.05;;
22320;SDS011;11328;53.928;18.522;2024-03-06T13:24:22;15.77;;;7.75;;
22320;SDS011;11328;53.928;18.522;2024-03-06T13:26:50;16.13;;;8.05;;
22320;SDS011;11328;53.928;18.522;2024-03-06T13:29:17;15.38;;;8.07;;
22320;SDS011;11328;53.928;18.522;2024-03-06T13:31:44;16.05;;;8.13;;
22320;SDS011;11328;53.928;18.522;2024-03-06T13:34:11;25.02;;;8.57;;
22320;SDS011;11328;53.928;18.522;2024-03-06T13:36:38;14.20;;;7.93;;
22320;SDS011;11328;53.928;18.522;2024-03-06T13:39:05;24.63;;;8.93;;
22320;SDS011;11328;53.928;18.522;2024-03-06T13:41:32;15.52;;;8.55;;
22320;SDS011;11328;53.928;18.522;2024-03-06T13:44:00;14.75;;;8.20;;
22320;SDS011;11328;53.928;18.522;2024-03-06T13:46:28;21.17;;;12.68;;
22320;SDS011;11328;53.928;18.522;2024-03-06T13:48:55;13.32;;;8.13;;
22320;SDS011;11328;53.928;18.522;2024-03-06T13:51:22;18.08;;;10.52;;
22320;SDS011;11328;53.928;18.522;2024-03-06T13:53:50;19.05;;;9.52;;
22320;SDS011;11328;53.928;18.522;2024-03-06T13:56:17;19.42;;;8.98;;
22320;SDS011;11328;53.928;18.522;2024-03-06T13:58:45;13.55;;;7.53;;
22320;SDS011;11328;53.928;18.522;2024-03-06T14:01:12;15.85;;;8.35;;
22320;SDS011;11328;53.928;18.522;2024-03-06T14:03:40;15.85;;;8.40;;
22320;SDS011;11328;53.928;18.522;2024-03-06T14:06:07;17.92;;;8.73;;
22320;SDS011;11328;53.928;18.522;2024-03-06T14:08:36;15.25;;;7.32;;
22320;SDS011;11328;53.928;18.522;2024-03-06T14:11:06;14.38;;;8.13;;
22320;SDS011;11328;53.928;18.522;2024-03-06T14:13:33;17.25;;;9.13;;
22320;SDS011;11328;53.928;18.522;2024-03-06T14:16:00;16.35;;;8.50;;
22320;SDS011;11328;53.928;18.522;2024-03-06T14:18:27;19.52;;;8.27;;
22320;SDS011;11328;53.928;18.522;2024-03-06T14:20:55;17.00;;;8.10;;
22320;SDS011;11328;53.928;18.522;2024-03-06T14:23:22;15.75;;;8.60;;
22320;SDS011;11328;53.928;18.522;2024-03-06T14:25:50;15.82;;;8.02;;
22320;SDS011;11328;53.928;18.522;2024-03-06T14:28:18;18.48;;;10.25;;
22320;SDS011;11328;53.928;18.522;2024-03-06T14:30:46;17.33;;;8.85;;
22320;SDS011;11328;53.928;18.522;2024-03-06T14:33:13;20.15;;;9.20;;
22320;SDS011;11328;53.928;18.522;2024-03-06T14:35:40;18.40;;;8.98;;
22320;SDS011;11328;53.928;18.522;2024-03-06T14:38:07;14.98;;;8.20;;
22320;SDS011;11328;53.928;18.522;2024-03-06T14:40:34;16.20;;;9.60;;
22320;SDS011;11328;53.928;18.522;2024-03-06T14:43:04;21.33;;;9.02;;
22320;SDS011;11328;53.928;18.522;2024-03-06T14:45:35;21.17;;;9.55;;
22320;SDS011;11328;53.928;18.522;2024-03-06T14:48:08;15.88;;;8.52;;
22320;SDS011;11328;53.928;18.522;2024-03-06T14:50:35;18.48;;;9.20;;
22320;SDS011;11328;53.928;18.522;2024-03-06T14:53:03;18.25;;;9.38;;
22320;SDS011;11328;53.928;18.522;2024-03-06T14:55:32;16.55;;;9.68;;
22320;SDS011;11328;53.928;18.522;2024-03-06T14:57:59;15.88;;;8.27;;
22320;SDS011;11328;53.928;18.522;2024-03-06T15:00:26;19.13;;;8.90;;